Sagittarian — WCY5210 — position and weather

sailwx.info

Track history (hours):
 
Tides and Currents Weather Stations Pressure Air Temp Water Temp Dewpoint Dewpoint Depression Visibility Wind Speed Wind Dir Waves Ship Positions

Sagittarian

Owner: TAURUS MARINE, SAN FRANCISCO, CA. More information available from US FCC via Universal Licensing System and Coast Guard Vessel Documentation Center.

Last reported at 2015-Mar-05 02:33 UTC. Time now 2015-Mar-05 08:07 UTC.
Position N 37°46' W 122°23'.

; draft 3 m.

Type: Towing. MMSI: 366969510.

Date/timePositionNaut miles runAvg speedWind from/ knotsBaromVisibWave heightAir tempDewpointWater temp
2015-Mar-05 02:33N 37°46' W 122°23'0 0.1
2015-Mar-05 01:33N 37°46' W 122°23'7 7.5
2015-Mar-05 00:33N 37°54' W 122°24'0 0.4
2015-Mar-04 23:33N 37°54' W 122°25'7 7.5
2015-Mar-04 22:33N 37°47' W 122°23'2 0.6
2015-Mar-04 19:33N 37°49' W 122°23'10 9.4
2015-Mar-04 18:32N 37°58' W 122°26'9 8.8
2015-Mar-04 17:33N 38°03' W 122°17'1 0.4
2015-Mar-04 15:24N 38°03' W 122°16'0 0.0
2015-Mar-03 16:11N 38°03' W 122°16'1 1.1
2015-Mar-03 15:33N 38°03' W 122°17'9 6.6
2015-Mar-03 14:08N 37°58' W 122°26'4 6.1
2015-Mar-03 13:33N 37°54' W 122°26'0 0.3
2015-Mar-03 12:13N 37°54' W 122°26'3 4.4
2015-Mar-03 11:33N 37°51' W 122°24'5 0.1
2015-Mar-01 15:07N 37°46' W 122°23'0 0.1
2015-Mar-01 14:33N 37°46' W 122°23'6 6.0
2015-Mar-01 13:33N 37°52' W 122°24'3 3.2
2015-Mar-01 12:33N 37°55' W 122°22'0 0.0
2015-Mar-01 11:31N 37°55' W 122°22'0 0.0
2015-Mar-01 10:33N 37°55' W 122°22'0 0.0
2015-Mar-01 09:23N 37°55' W 122°22'0 0.0
2015-Mar-01 08:28N 37°55' W 122°22'0 0.0
2015-Mar-01 07:33N 37°55' W 122°22'0 0.0
2015-Mar-01 06:30N 37°55' W 122°22'0 0.0
2015-Mar-01 05:33N 37°55' W 122°22'0 0.0
2015-Mar-01 04:33N 37°55' W 122°22'0 0.0
2015-Mar-01 03:32N 37°55' W 122°22'0 0.0
2015-Mar-01 02:29N 37°55' W 122°22'0 0.0
2015-Mar-01 01:24N 37°55' W 122°22'0 0.0
2015-Mar-01 00:32N 37°55' W 122°22'3 3.2
2015-Feb-28 23:28N 37°52' W 122°24'6 6.9
2015-Feb-28 22:34N 37°46' W 122°21'0 0.0
2015-Feb-28 21:32N 37°46' W 122°21'0 0.0
2015-Feb-28 20:33N 37°46' W 122°21'0 0.0
2015-Feb-28 19:33N 37°46' W 122°21'0 0.5
2015-Feb-28 18:33N 37°46' W 122°22'1 1.1
2015-Feb-28 17:32N 37°46' W 122°23'8 3.6
2015-Feb-28 15:25N 37°54' W 122°25'6 7.2
2015-Feb-28 14:33N 37°48' W 122°23'1 0.1
2015-Feb-27 10:10N 37°46' W 122°23'1 1.5
2015-Feb-27 09:33N 37°47' W 122°23'1110.7
2015-Feb-27 08:31N 37°58' W 122°26'11 9.8
2015-Feb-27 07:24N 38°04' W 122°14'1 0.7
2015-Feb-27 06:33N 38°03' W 122°13'10 8.6
2015-Feb-27 05:25N 37°60' W 122°24'8 9.5
2015-Feb-27 04:33N 37°52' W 122°24'5 5.2
2015-Feb-27 03:33N 37°46' W 122°23'0 0.0
2015-Feb-27 02:33N 37°46' W 122°23'0 0.0
2015-Feb-27 01:34N 37°46' W 122°23'0 0.0
2015-Feb-27 00:33N 37°46' W 122°23'0 0.0
2015-Feb-26 23:34N 37°46' W 122°23'0 0.0
2015-Feb-26 22:33N 37°46' W 122°23'0 0.0
2015-Feb-26 21:34N 37°46' W 122°23'0 0.0
2015-Feb-26 20:34N 37°46' W 122°23'0 0.0
2015-Feb-26 19:33N 37°46' W 122°23'0 0.0
2015-Feb-26 18:33N 37°46' W 122°23'0 0.0
2015-Feb-26 17:33N 37°46' W 122°23'0 0.0
2015-Feb-26 16:34N 37°46' W 122°23'0 0.0
2015-Feb-26 15:34N 37°46' W 122°23'0 0.0
2015-Feb-26 14:34N 37°46' W 122°23'0 0.0
2015-Feb-26 13:34N 37°46' W 122°23'0 0.0
2015-Feb-26 12:34N 37°46' W 122°23'0 0.0
2015-Feb-26 11:33N 37°46' W 122°23'0 0.0
2015-Feb-26 10:33N 37°46' W 122°23'0 0.0
2015-Feb-26 09:34N 37°46' W 122°23'0 0.0
2015-Feb-26 08:34N 37°46' W 122°23'0 0.0
2015-Feb-26 07:33N 37°46' W 122°23'0 0.0
2015-Feb-26 06:34N 37°46' W 122°23'0 0.0
2015-Feb-26 05:34N 37°46' W 122°23'3 3.3
2015-Feb-26 04:34N 37°49' W 122°26'4 4.3
2015-Feb-26 03:34N 37°49' W 122°31'6 5.6
2015-Feb-26 02:33N 37°50' W 122°24'3 3.5
2015-Feb-26 01:34N 37°47' W 122°21'2 2.1
2015-Feb-26 00:34N 37°46' W 122°23'0 0.0
2015-Feb-25 23:34N 37°46' W 122°23'0 0.0
2015-Feb-25 22:33N 37°46' W 122°23'0 0.0
2015-Feb-25 21:34N 37°46' W 122°23'2 2.1
2015-Feb-25 20:34N 37°48' W 122°21'7 6.8
2015-Feb-25 19:34N 37°53' W 122°25'2 2.2
2015-Feb-25 18:33N 37°55' W 122°25'0 0.1
2015-Feb-25 17:34N 37°55' W 122°25'3 2.8
2015-Feb-25 16:33N 37°53' W 122°24'6 6.2
2015-Feb-25 15:33N 37°46' W 122°23'0 0.0
2015-Feb-24 18:23N 37°46' W 122°23'2 3.0
2015-Feb-24 17:33N 37°49' W 122°23'7 6.6
2015-Feb-24 16:33N 37°55' W 122°25'3 3.4
2015-Feb-24 15:33N 37°59' W 122°26'1110.3
2015-Feb-24 14:32N 38°04' W 122°14'5 2.2
2015-Feb-24 12:20N 38°02' W 122°08'2 0.1
2015-Feb-23 20:21N 38°02' W 122°10'4 4.6
2015-Feb-23 19:31N 38°04' W 122°15'9 4.7
2015-Feb-23 17:33N 37°59' W 122°25'4 3.8
2015-Feb-23 16:33N 37°55' W 122°25'6 6.3
2015-Feb-23 15:33N 37°49' W 122°24'  
Track history (hours):
 
Tides and Currents Weather Stations Pressure Air Temp Water Temp Dewpoint Dewpoint Depression Visibility Wind Speed Wind Dir Waves Ship Positions

Sagittarian

Owner: TAURUS MARINE, SAN FRANCISCO, CA. More information available from US FCC via Universal Licensing System and Coast Guard Vessel Documentation Center.

Last reported at 2015-Mar-05 02:33 UTC. Time now 2015-Mar-05 08:07 UTC.
Position N 37°46' W 122°23'.

; draft 3 m.

Type: Towing. MMSI: 366969510.

Date/timePositionNaut miles runAvg speedWind from/ knotsBaromVisibWave heightAir tempDewpointWater temp
2015-Mar-05 02:33N 37°46' W 122°23'0 0.1
2015-Mar-05 01:33N 37°46' W 122°23'7 7.5
2015-Mar-05 00:33N 37°54' W 122°24'0 0.4
2015-Mar-04 23:33N 37°54' W 122°25'7 7.5
2015-Mar-04 22:33N 37°47' W 122°23'2 0.6
2015-Mar-04 19:33N 37°49' W 122°23'10 9.4
2015-Mar-04 18:32N 37°58' W 122°26'9 8.8
2015-Mar-04 17:33N 38°03' W 122°17'1 0.4
2015-Mar-04 15:24N 38°03' W 122°16'0 0.0
2015-Mar-03 16:11N 38°03' W 122°16'1 1.1
2015-Mar-03 15:33N 38°03' W 122°17'9 6.6
2015-Mar-03 14:08N 37°58' W 122°26'4 6.1
2015-Mar-03 13:33N 37°54' W 122°26'0 0.3
2015-Mar-03 12:13N 37°54' W 122°26'3 4.4
2015-Mar-03 11:33N 37°51' W 122°24'5 0.1
2015-Mar-01 15:07N 37°46' W 122°23'0 0.1
2015-Mar-01 14:33N 37°46' W 122°23'6 6.0
2015-Mar-01 13:33N 37°52' W 122°24'3 3.2
2015-Mar-01 12:33N 37°55' W 122°22'0 0.0
2015-Mar-01 11:31N 37°55' W 122°22'0 0.0
2015-Mar-01 10:33N 37°55' W 122°22'0 0.0
2015-Mar-01 09:23N 37°55' W 122°22'0 0.0
2015-Mar-01 08:28N 37°55' W 122°22'0 0.0
2015-Mar-01 07:33N 37°55' W 122°22'0 0.0
2015-Mar-01 06:30N 37°55' W 122°22'0 0.0
2015-Mar-01 05:33N 37°55' W 122°22'0 0.0
2015-Mar-01 04:33N 37°55' W 122°22'0 0.0
2015-Mar-01 03:32N 37°55' W 122°22'0 0.0
2015-Mar-01 02:29N 37°55' W 122°22'0 0.0
2015-Mar-01 01:24N 37°55' W 122°22'0 0.0
2015-Mar-01 00:32N 37°55' W 122°22'3 3.2
2015-Feb-28 23:28N 37°52' W 122°24'6 6.9
2015-Feb-28 22:34N 37°46' W 122°21'0 0.0
2015-Feb-28 21:32N 37°46' W 122°21'0 0.0
2015-Feb-28 20:33N 37°46' W 122°21'0 0.0
2015-Feb-28 19:33N 37°46' W 122°21'0 0.5
2015-Feb-28 18:33N 37°46' W 122°22'1 1.1
2015-Feb-28 17:32N 37°46' W 122°23'8 3.6
2015-Feb-28 15:25N 37°54' W 122°25'6 7.2
2015-Feb-28 14:33N 37°48' W 122°23'1 0.1
2015-Feb-27 10:10N 37°46' W 122°23'1 1.5
2015-Feb-27 09:33N 37°47' W 122°23'1110.7
2015-Feb-27 08:31N 37°58' W 122°26'11 9.8
2015-Feb-27 07:24N 38°04' W 122°14'1 0.7
2015-Feb-27 06:33N 38°03' W 122°13'10 8.6
2015-Feb-27 05:25N 37°60' W 122°24'8 9.5
2015-Feb-27 04:33N 37°52' W 122°24'5 5.2
2015-Feb-27 03:33N 37°46' W 122°23'0 0.0
2015-Feb-27 02:33N 37°46' W 122°23'0 0.0
2015-Feb-27 01:34N 37°46' W 122°23'0 0.0
2015-Feb-27 00:33N 37°46' W 122°23'0 0.0
2015-Feb-26 23:34N 37°46' W 122°23'0 0.0
2015-Feb-26 22:33N 37°46' W 122°23'0 0.0
2015-Feb-26 21:34N 37°46' W 122°23'0 0.0
2015-Feb-26 20:34N 37°46' W 122°23'0 0.0
2015-Feb-26 19:33N 37°46' W 122°23'0 0.0
2015-Feb-26 18:33N 37°46' W 122°23'0 0.0
2015-Feb-26 17:33N 37°46' W 122°23'0 0.0
2015-Feb-26 16:34N 37°46' W 122°23'0 0.0
2015-Feb-26 15:34N 37°46' W 122°23'0 0.0
2015-Feb-26 14:34N 37°46' W 122°23'0 0.0
2015-Feb-26 13:34N 37°46' W 122°23'0 0.0
2015-Feb-26 12:34N 37°46' W 122°23'0 0.0
2015-Feb-26 11:33N 37°46' W 122°23'0 0.0
2015-Feb-26 10:33N 37°46' W 122°23'0 0.0
2015-Feb-26 09:34N 37°46' W 122°23'0 0.0
2015-Feb-26 08:34N 37°46' W 122°23'0 0.0
2015-Feb-26 07:33N 37°46' W 122°23'0 0.0
2015-Feb-26 06:34N 37°46' W 122°23'0 0.0
2015-Feb-26 05:34N 37°46' W 122°23'3 3.3
2015-Feb-26 04:34N 37°49' W 122°26'4 4.3
2015-Feb-26 03:34N 37°49' W 122°31'6 5.6
2015-Feb-26 02:33N 37°50' W 122°24'3 3.5
2015-Feb-26 01:34N 37°47' W 122°21'2 2.1
2015-Feb-26 00:34N 37°46' W 122°23'0 0.0
2015-Feb-25 23:34N 37°46' W 122°23'0 0.0
2015-Feb-25 22:33N 37°46' W 122°23'0 0.0
2015-Feb-25 21:34N 37°46' W 122°23'2 2.1
2015-Feb-25 20:34N 37°48' W 122°21'7 6.8
2015-Feb-25 19:34N 37°53' W 122°25'2 2.2
2015-Feb-25 18:33N 37°55' W 122°25'0 0.1
2015-Feb-25 17:34N 37°55' W 122°25'3 2.8
2015-Feb-25 16:33N 37°53' W 122°24'6 6.2
2015-Feb-25 15:33N 37°46' W 122°23'0 0.0
2015-Feb-24 18:23N 37°46' W 122°23'2 3.0
2015-Feb-24 17:33N 37°49' W 122°23'7 6.6
2015-Feb-24 16:33N 37°55' W 122°25'3 3.4
2015-Feb-24 15:33N 37°59' W 122°26'1110.3
2015-Feb-24 14:32N 38°04' W 122°14'5 2.2
2015-Feb-24 12:20N 38°02' W 122°08'2 0.1
2015-Feb-23 20:21N 38°02' W 122°10'4 4.6
2015-Feb-23 19:31N 38°04' W 122°15'9 4.7
2015-Feb-23 17:33N 37°59' W 122°25'4 3.8
2015-Feb-23 16:33N 37°55' W 122°25'6 6.3
2015-Feb-23 15:33N 37°49' W 122°24'  

Dump ship's entire track history